LFBZ Airport Information

Runway Information
Runway 09 Length 7382 ft width 148 ft
Elevation 242 ft Threshold 656 ft Heading 89
Runway 27 Length 7382 ft Width 148 ft
Elevation 219 ft Threshold 0 ft Heading 269
Airport Frequencies
Type APP Name BIARRITZ A Frequency 125.6 MHZ
Type ATIS Name ATIS Frequency 128.225 MHZ
Type GND Name BIARRITZ G Frequency 121.95 MHZ
Type TWR Name BIARRITZ T Frequency 118.7 MHZ
Airport Navaids
Type VOR-DME Name Biarritz Frequency 114150 KHZ
Type NDB Name Biarritz Frequency 341 KHZ
Airport Weather Information & NOTAM
ADDS - METARS form results

(0119 UTC 27 July 2021)
Data provider http://aviationweather.gov/metar/data/
 
METAR text: LFBZ 270100Z AUTO 16004KT CAVOK 16/15 Q1017 TEMPO BKN013
Conditions at: LFBZ (BIARRITZ/ANGLET , FR) observed 0100 UTC 27 July 2021
Temperature: 16.0°C (61°F)
Dewpoint: 15.0°C (59°F) [RH = 94%]
Pressure (altimeter): 30.03 inches Hg (1017.0 mb)
Winds: from the SSE (160 degrees) at 5 MPH (4 knots; 2.1 m/s)
Visibility: 6 or more miles (10+ km)
Ceiling: ceiling and visibility are OK
Clouds: unknown
Weather: no significant weather observed at this time

METAR text: LFBZ 270030Z AUTO 20003KT CAVOK 16/15 Q1017 TEMPO BKN013
Conditions at: LFBZ (BIARRITZ/ANGLET , FR) observed 0030 UTC 27 July 2021
Temperature: 16.0°C (61°F)
Dewpoint: 15.0°C (59°F) [RH = 94%]
Pressure (altimeter): 30.03 inches Hg (1017.0 mb)
Winds: from the SSW (200 degrees) at 3 MPH (3 knots; 1.5 m/s)
Visibility: 6 or more miles (10+ km)
Ceiling: ceiling and visibility are OK
Clouds: unknown
Weather: no significant weather observed at this time

Forecast for: LFBZ (BIARRITZ/ANGLET , FR)
Text: TAF LFBZ 262300Z 2700/2724 VRB02KT CAVOK
Forecast period: 0000 to 1000 UTC 27 July 2021
Forecast type: FROM: standard forecast or significant change
Winds: variable direction winds at 2 MPH (2 knots; 1.0 m/s)
Visibility: 6 or more miles (10+ km)
Ceiling: unknown
Clouds: missing
Weather: NSW  (no significant weather)
Text: TEMPO 2702/2709 BKN013
Forecast period: 0200 to 0900 UTC 27 July 2021
Forecast type: TEMPORARY: The following changes expected for less than half the time period
Visibility: missing
Ceiling: 1300 feet AGL
Clouds: broken clouds at 1300 feet AGL
Weather: no significant weather forecast for this period
Text: BECMG 2710/2712 30010KT BKN040
Forecast period: 1000 UTC 27 July 2021 to 0000 UTC 28 July 2021
Forecast type: BECOMING: Conditions expected to become as follows by 1200 UTC 27 July 2021
Winds: from the WNW (300 degrees) at 12 MPH (10 knots; 5.1 m/s)
Visibility: 6 or more miles (10+ km)
Ceiling: 4000 feet AGL
Clouds: broken clouds at 4000 feet AGL
Weather: NSW  (no significant weather)
Text: PROB40
Forecast period: 1800 UTC 27 July 2021 to 0000 UTC 28 July 2021
Forecast type: TEMPORARY: The following changes expected for less than half the time period
Visibility: missing
Ceiling: 1300 feet AGL
Clouds: broken clouds at 1300 feet AGL
Weather: no significant weather forecast for this period